sensor_id;sensor_type;location;lat;lon;timestamp;P1;durP1;ratioP1;P2;durP2;ratioP2
34098;SDS011;20374;49.474;10.944;2023-07-08T00:00:51;5.60;;;5.20;;
34098;SDS011;20374;49.474;10.944;2023-07-08T00:03:17;6.38;;;5.88;;
34098;SDS011;20374;49.474;10.944;2023-07-08T00:05:48;6.40;;;5.90;;
34098;SDS011;20374;49.474;10.944;2023-07-08T00:08:19;6.65;;;6.15;;
34098;SDS011;20374;49.474;10.944;2023-07-08T00:10:46;6.95;;;6.32;;
34098;SDS011;20374;49.474;10.944;2023-07-08T00:13:12;5.68;;;5.28;;
34098;SDS011;20374;49.474;10.944;2023-07-08T00:15:39;6.30;;;5.85;;
34098;SDS011;20374;49.474;10.944;2023-07-08T00:18:10;6.38;;;5.88;;
34098;SDS011;20374;49.474;10.944;2023-07-08T00:20:38;5.67;;;5.27;;
34098;SDS011;20374;49.474;10.944;2023-07-08T00:23:08;6.18;;;5.68;;
34098;SDS011;20374;49.474;10.944;2023-07-08T00:25:35;6.18;;;5.65;;
34098;SDS011;20374;49.474;10.944;2023-07-08T00:28:01;6.03;;;5.53;;
34098;SDS011;20374;49.474;10.944;2023-07-08T00:30:28;6.00;;;5.60;;
34098;SDS011;20374;49.474;10.944;2023-07-08T00:32:56;5.50;;;5.07;;
34098;SDS011;20374;49.474;10.944;2023-07-08T00:35:24;6.25;;;5.75;;
34098;SDS011;20374;49.474;10.944;2023-07-08T00:37:59;5.43;;;5.03;;
34098;SDS011;20374;49.474;10.944;2023-07-08T00:40:29;5.53;;;5.13;;
34098;SDS011;20374;49.474;10.944;2023-07-08T00:43:02;6.22;;;5.72;;
34098;SDS011;20374;49.474;10.944;2023-07-08T00:48:06;6.05;;;5.47;;
34098;SDS011;20374;49.474;10.944;2023-07-08T00:50:50;5.88;;;5.47;;
34098;SDS011;20374;49.474;10.944;2023-07-08T00:55:53;5.60;;;5.07;;
34098;SDS011;20374;49.474;10.944;2023-07-08T00:58:22;5.10;;;4.60;;
34098;SDS011;20374;49.474;10.944;2023-07-08T01:00:50;6.35;;;5.78;;
34098;SDS011;20374;49.474;10.944;2023-07-08T01:03:18;6.05;;;5.13;;
34098;SDS011;20374;49.474;10.944;2023-07-08T01:05:45;5.55;;;5.15;;
34098;SDS011;20374;49.474;10.944;2023-07-08T01:08:12;6.93;;;6.32;;
34098;SDS011;20374;49.474;10.944;2023-07-08T01:10:41;5.90;;;5.47;;
34098;SDS011;20374;49.474;10.944;2023-07-08T01:13:14;5.93;;;5.43;;
34098;SDS011;20374;49.474;10.944;2023-07-08T01:15:43;6.75;;;6.25;;
34098;SDS011;20374;49.474;10.944;2023-07-08T01:18:11;5.50;;;5.00;;
34098;SDS011;20374;49.474;10.944;2023-07-08T01:20:41;6.30;;;5.90;;
34098;SDS011;20374;49.474;10.944;2023-07-08T01:23:11;6.10;;;5.50;;
34098;SDS011;20374;49.474;10.944;2023-07-08T01:25:38;6.75;;;5.43;;
34098;SDS011;20374;49.474;10.944;2023-07-08T01:28:06;7.53;;;5.50;;
34098;SDS011;20374;49.474;10.944;2023-07-08T01:30:32;5.63;;;5.18;;
34098;SDS011;20374;49.474;10.944;2023-07-08T01:32:59;6.32;;;5.65;;
34098;SDS011;20374;49.474;10.944;2023-07-08T01:35:30;5.82;;;5.32;;
34098;SDS011;20374;49.474;10.944;2023-07-08T01:37:57;6.55;;;6.15;;
34098;SDS011;20374;49.474;10.944;2023-07-08T01:40:30;5.93;;;5.43;;
34098;SDS011;20374;49.474;10.944;2023-07-08T01:42:59;6.80;;;6.13;;
34098;SDS011;20374;49.474;10.944;2023-07-08T01:45:27;6.60;;;6.10;;
34098;SDS011;20374;49.474;10.944;2023-07-08T01:47:58;6.75;;;6.15;;
34098;SDS011;20374;49.474;10.944;2023-07-08T01:50:27;6.30;;;5.82;;
34098;SDS011;20374;49.474;10.944;2023-07-08T01:52:56;5.80;;;4.85;;
34098;SDS011;20374;49.474;10.944;2023-07-08T01:55:25;6.30;;;5.78;;
34098;SDS011;20374;49.474;10.944;2023-07-08T01:57:55;5.60;;;5.03;;
34098;SDS011;20374;49.474;10.944;2023-07-08T02:00:21;5.65;;;4.85;;
34098;SDS011;20374;49.474;10.944;2023-07-08T02:02:48;6.82;;;6.30;;
34098;SDS011;20374;49.474;10.944;2023-07-08T02:05:15;6.85;;;6.35;;
34098;SDS011;20374;49.474;10.944;2023-07-08T02:07:41;5.90;;;5.30;;
34098;SDS011;20374;49.474;10.944;2023-07-08T02:10:07;6.38;;;5.78;;
34098;SDS011;20374;49.474;10.944;2023-07-08T02:12:33;6.07;;;5.57;;
34098;SDS011;20374;49.474;10.944;2023-07-08T02:15:02;6.05;;;5.55;;
34098;SDS011;20374;49.474;10.944;2023-07-08T02:17:28;6.85;;;6.35;;
34098;SDS011;20374;49.474;10.944;2023-07-08T02:19:55;5.85;;;5.43;;
34098;SDS011;20374;49.474;10.944;2023-07-08T02:22:21;6.68;;;6.18;;
34098;SDS011;20374;49.474;10.944;2023-07-08T02:24:47;6.57;;;5.97;;
34098;SDS011;20374;49.474;10.944;2023-07-08T02:27:14;6.10;;;5.60;;
34098;SDS011;20374;49.474;10.944;2023-07-08T02:29:40;5.88;;;5.38;;
34098;SDS011;20374;49.474;10.944;2023-07-08T02:32:09;5.70;;;5.25;;
34098;SDS011;20374;49.474;10.944;2023-07-08T02:34:35;6.15;;;5.65;;
34098;SDS011;20374;49.474;10.944;2023-07-08T02:37:02;6.03;;;5.60;;
34098;SDS011;20374;49.474;10.944;2023-07-08T02:39:28;6.60;;;6.10;;
34098;SDS011;20374;49.474;10.944;2023-07-08T02:41:54;6.50;;;5.90;;
34098;SDS011;20374;49.474;10.944;2023-07-08T02:44:20;6.90;;;6.40;;
34098;SDS011;20374;49.474;10.944;2023-07-08T02:46:46;7.27;;;6.57;;
34098;SDS011;20374;49.474;10.944;2023-07-08T02:49:11;7.30;;;6.70;;
34098;SDS011;20374;49.474;10.944;2023-07-08T02:51:37;5.55;;;5.05;;
34098;SDS011;20374;49.474;10.944;2023-07-08T02:54:03;5.82;;;5.38;;
34098;SDS011;20374;49.474;10.944;2023-07-08T02:56:29;7.07;;;6.45;;
34098;SDS011;20374;49.474;10.944;2023-07-08T02:58:55;7.13;;;6.53;;
34098;SDS011;20374;49.474;10.944;2023-07-08T03:01:21;6.07;;;5.63;;
34098;SDS011;20374;49.474;10.944;2023-07-08T03:03:48;7.15;;;5.72;;
34098;SDS011;20374;49.474;10.944;2023-07-08T03:06:15;5.95;;;5.55;;
34098;SDS011;20374;49.474;10.944;2023-07-08T03:08:41;5.30;;;4.90;;
34098;SDS011;20374;49.474;10.944;2023-07-08T03:11:07;6.37;;;5.83;;
34098;SDS011;20374;49.474;10.944;2023-07-08T03:13:34;5.85;;;5.32;;
34098;SDS011;20374;49.474;10.944;2023-07-08T03:16:01;6.35;;;5.85;;
34098;SDS011;20374;49.474;10.944;2023-07-08T03:18:28;5.85;;;5.45;;
34098;SDS011;20374;49.474;10.944;2023-07-08T03:20:55;5.85;;;5.35;;
34098;SDS011;20374;49.474;10.944;2023-07-08T03:23:22;5.93;;;5.43;;
34098;SDS011;20374;49.474;10.944;2023-07-08T03:25:51;6.95;;;6.22;;
34098;SDS011;20374;49.474;10.944;2023-07-08T03:28:18;6.93;;;5.75;;
34098;SDS011;20374;49.474;10.944;2023-07-08T03:30:45;7.95;;;5.78;;
34098;SDS011;20374;49.474;10.944;2023-07-08T03:33:16;7.05;;;6.35;;
34098;SDS011;20374;49.474;10.944;2023-07-08T03:35:42;6.03;;;5.53;;
34098;SDS011;20374;49.474;10.944;2023-07-08T03:38:08;6.47;;;5.97;;
34098;SDS011;20374;49.474;10.944;2023-07-08T03:40:34;5.25;;;4.85;;
34098;SDS011;20374;49.474;10.944;2023-07-08T03:43:01;7.05;;;6.45;;
34098;SDS011;20374;49.474;10.944;2023-07-08T03:45:29;6.18;;;5.68;;
34098;SDS011;20374;49.474;10.944;2023-07-08T03:47:55;6.55;;;5.95;;
34098;SDS011;20374;49.474;10.944;2023-07-08T03:50:22;5.50;;;4.78;;
34098;SDS011;20374;49.474;10.944;2023-07-08T03:52:50;8.77;;;5.65;;
34098;SDS011;20374;49.474;10.944;2023-07-08T03:55:17;5.78;;;5.28;;
34098;SDS011;20374;49.474;10.944;2023-07-08T03:57:43;8.95;;;5.78;;
34098;SDS011;20374;49.474;10.944;2023-07-08T04:00:10;6.10;;;5.50;;
34098;SDS011;20374;49.474;10.944;2023-07-08T04:02:40;6.68;;;6.18;;
34098;SDS011;20374;49.474;10.944;2023-07-08T04:05:14;7.13;;;6.05;;
34098;SDS011;20374;49.474;10.944;2023-07-08T04:07:41;5.93;;;5.30;;
34098;SDS011;20374;49.474;10.944;2023-07-08T04:10:07;6.50;;;5.90;;
34098;SDS011;20374;49.474;10.944;2023-07-08T04:12:34;6.55;;;6.05;;
34098;SDS011;20374;49.474;10.944;2023-07-08T04:15:01;5.70;;;5.15;;
34098;SDS011;20374;49.474;10.944;2023-07-08T04:17:27;6.22;;;5.70;;
34098;SDS011;20374;49.474;10.944;2023-07-08T04:19:53;6.47;;;5.97;;
34098;SDS011;20374;49.474;10.944;2023-07-08T04:22:22;5.93;;;5.43;;
34098;SDS011;20374;49.474;10.944;2023-07-08T04:24:49;6.20;;;5.57;;
34098;SDS011;20374;49.474;10.944;2023-07-08T04:27:15;6.38;;;5.72;;
34098;SDS011;20374;49.474;10.944;2023-07-08T04:29:43;6.25;;;5.75;;
34098;SDS011;20374;49.474;10.944;2023-07-08T04:32:09;5.75;;;5.25;;
34098;SDS011;20374;49.474;10.944;2023-07-08T04:34:35;6.38;;;5.70;;
34098;SDS011;20374;49.474;10.944;2023-07-08T04:37:01;6.13;;;5.63;;
34098;SDS011;20374;49.474;10.944;2023-07-08T04:39:29;6.65;;;6.05;;
34098;SDS011;20374;49.474;10.944;2023-07-08T04:41:56;7.28;;;6.68;;
34098;SDS011;20374;49.474;10.944;2023-07-08T04:44:22;6.63;;;6.03;;
34098;SDS011;20374;49.474;10.944;2023-07-08T04:46:49;6.70;;;6.20;;
34098;SDS011;20374;49.474;10.944;2023-07-08T04:49:19;7.35;;;6.65;;
34098;SDS011;20374;49.474;10.944;2023-07-08T04:51:46;7.45;;;6.95;;
34098;SDS011;20374;49.474;10.944;2023-07-08T04:54:12;6.85;;;6.25;;
34098;SDS011;20374;49.474;10.944;2023-07-08T04:56:47;7.00;;;6.47;;
34098;SDS011;20374;49.474;10.944;2023-07-08T04:59:15;8.63;;;8.02;;
34098;SDS011;20374;49.474;10.944;2023-07-08T05:01:45;8.45;;;7.85;;
34098;SDS011;20374;49.474;10.944;2023-07-08T05:04:15;7.00;;;6.50;;
34098;SDS011;20374;49.474;10.944;2023-07-08T05:06:42;7.47;;;6.88;;
34098;SDS011;20374;49.474;10.944;2023-07-08T05:09:08;8.25;;;6.45;;
34098;SDS011;20374;49.474;10.944;2023-07-08T05:11:35;6.95;;;6.35;;
34098;SDS011;20374;49.474;10.944;2023-07-08T05:14:02;6.35;;;5.85;;
34098;SDS011;20374;49.474;10.944;2023-07-08T05:16:33;7.50;;;6.90;;
34098;SDS011;20374;49.474;10.944;2023-07-08T05:19:03;6.50;;;5.90;;
34098;SDS011;20374;49.474;10.944;2023-07-08T05:21:29;7.35;;;6.75;;
34098;SDS011;20374;49.474;10.944;2023-07-08T05:23:59;7.28;;;6.72;;
34098;SDS011;20374;49.474;10.944;2023-07-08T05:26:25;5.82;;;5.32;;
34098;SDS011;20374;49.474;10.944;2023-07-08T05:28:51;8.00;;;7.40;;
34098;SDS011;20374;49.474;10.944;2023-07-08T05:31:17;7.30;;;6.68;;
34098;SDS011;20374;49.474;10.944;2023-07-08T05:33:43;6.50;;;6.00;;
34098;SDS011;20374;49.474;10.944;2023-07-08T05:36:09;6.90;;;6.40;;
34098;SDS011;20374;49.474;10.944;2023-07-08T05:38:35;6.95;;;6.45;;
34098;SDS011;20374;49.474;10.944;2023-07-08T05:41:00;7.03;;;6.53;;
34098;SDS011;20374;49.474;10.944;2023-07-08T05:43:26;6.28;;;5.78;;
34098;SDS011;20374;49.474;10.944;2023-07-08T05:45:56;6.80;;;6.30;;
34098;SDS011;20374;49.474;10.944;2023-07-08T05:48:23;7.20;;;6.70;;
34098;SDS011;20374;49.474;10.944;2023-07-08T05:50:49;7.63;;;7.13;;
34098;SDS011;20374;49.474;10.944;2023-07-08T05:53:17;6.18;;;5.78;;
34098;SDS011;20374;49.474;10.944;2023-07-08T05:55:44;7.28;;;6.68;;
34098;SDS011;20374;49.474;10.944;2023-07-08T05:58:10;8.15;;;5.97;;
34098;SDS011;20374;49.474;10.944;2023-07-08T06:00:40;6.10;;;5.47;;
34098;SDS011;20374;49.474;10.944;2023-07-08T06:03:07;6.50;;;5.88;;
34098;SDS011;20374;49.474;10.944;2023-07-08T06:05:34;6.75;;;6.25;;
34098;SDS011;20374;49.474;10.944;2023-07-08T06:08:00;7.13;;;6.45;;
34098;SDS011;20374;49.474;10.944;2023-07-08T06:10:25;7.30;;;6.70;;
34098;SDS011;20374;49.474;10.944;2023-07-08T06:12:51;8.45;;;7.85;;
34098;SDS011;20374;49.474;10.944;2023-07-08T06:15:17;14.98;;;14.25;;
34098;SDS011;20374;49.474;10.944;2023-07-08T06:17:43;6.13;;;5.73;;
34098;SDS011;20374;49.474;10.944;2023-07-08T06:20:09;6.80;;;5.85;;
34098;SDS011;20374;49.474;10.944;2023-07-08T06:22:35;6.40;;;5.80;;
34098;SDS011;20374;49.474;10.944;2023-07-08T06:25:01;7.43;;;6.90;;
34098;SDS011;20374;49.474;10.944;2023-07-08T06:27:27;8.05;;;7.47;;
34098;SDS011;20374;49.474;10.944;2023-07-08T06:29:53;7.47;;;6.78;;
34098;SDS011;20374;49.474;10.944;2023-07-08T06:32:19;7.47;;;6.87;;
34098;SDS011;20374;49.474;10.944;2023-07-08T06:34:45;6.35;;;5.85;;
34098;SDS011;20374;49.474;10.944;2023-07-08T06:37:11;7.50;;;6.97;;
34098;SDS011;20374;49.474;10.944;2023-07-08T06:39:36;6.27;;;5.77;;
34098;SDS011;20374;49.474;10.944;2023-07-08T06:42:02;6.47;;;5.97;;
34098;SDS011;20374;49.474;10.944;2023-07-08T06:44:32;5.95;;;5.43;;
34098;SDS011;20374;49.474;10.944;2023-07-08T06:46:57;6.60;;;6.10;;
34098;SDS011;20374;49.474;10.944;2023-07-08T06:49:23;6.70;;;6.10;;
34098;SDS011;20374;49.474;10.944;2023-07-08T06:51:49;5.97;;;5.47;;
34098;SDS011;20374;49.474;10.944;2023-07-08T06:54:15;6.43;;;5.93;;
34098;SDS011;20374;49.474;10.944;2023-07-08T06:56:41;5.53;;;5.05;;
34098;SDS011;20374;49.474;10.944;2023-07-08T06:59:07;5.78;;;5.28;;
34098;SDS011;20374;49.474;10.944;2023-07-08T07:01:34;7.27;;;6.67;;
34098;SDS011;20374;49.474;10.944;2023-07-08T07:04:02;5.82;;;5.32;;
34098;SDS011;20374;49.474;10.944;2023-07-08T07:06:28;7.10;;;6.60;;
34098;SDS011;20374;49.474;10.944;2023-07-08T07:08:54;6.43;;;5.93;;
34098;SDS011;20374;49.474;10.944;2023-07-08T07:11:20;6.47;;;5.97;;
34098;SDS011;20374;49.474;10.944;2023-07-08T07:13:50;5.72;;;4.97;;
34098;SDS011;20374;49.474;10.944;2023-07-08T07:16:15;6.63;;;6.13;;
34098;SDS011;20374;49.474;10.944;2023-07-08T07:18:41;6.10;;;5.63;;
34098;SDS011;20374;49.474;10.944;2023-07-08T07:21:07;6.67;;;6.17;;
34098;SDS011;20374;49.474;10.944;2023-07-08T07:23:33;7.22;;;6.72;;
34098;SDS011;20374;49.474;10.944;2023-07-08T07:25:59;5.75;;;5.35;;
34098;SDS011;20374;49.474;10.944;2023-07-08T07:28:25;6.75;;;5.93;;
34098;SDS011;20374;49.474;10.944;2023-07-08T07:30:57;6.25;;;5.75;;
34098;SDS011;20374;49.474;10.944;2023-07-08T07:33:24;6.60;;;5.72;;
34098;SDS011;20374;49.474;10.944;2023-07-08T07:35:50;6.93;;;6.43;;
34098;SDS011;20374;49.474;10.944;2023-07-08T07:38:16;7.90;;;7.30;;
34098;SDS011;20374;49.474;10.944;2023-07-08T07:40:43;7.88;;;7.28;;
34098;SDS011;20374;49.474;10.944;2023-07-08T07:43:09;7.07;;;6.57;;
34098;SDS011;20374;49.474;10.944;2023-07-08T07:45:35;7.53;;;7.03;;
34098;SDS011;20374;49.474;10.944;2023-07-08T07:48:01;6.77;;;6.27;;
34098;SDS011;20374;49.474;10.944;2023-07-08T07:50:28;6.47;;;6.03;;
34098;SDS011;20374;49.474;10.944;2023-07-08T07:52:55;6.55;;;6.15;;
34098;SDS011;20374;49.474;10.944;2023-07-08T07:55:21;5.22;;;4.72;;
34098;SDS011;20374;49.474;10.944;2023-07-08T07:57:47;7.10;;;6.53;;
34098;SDS011;20374;49.474;10.944;2023-07-08T08:00:13;5.95;;;5.55;;
34098;SDS011;20374;49.474;10.944;2023-07-08T08:02:40;6.38;;;5.88;;
34098;SDS011;20374;49.474;10.944;2023-07-08T08:05:06;7.20;;;6.63;;
34098;SDS011;20374;49.474;10.944;2023-07-08T08:07:32;5.50;;;5.00;;
34098;SDS011;20374;49.474;10.944;2023-07-08T08:09:58;5.93;;;5.50;;
34098;SDS011;20374;49.474;10.944;2023-07-08T08:12:24;6.78;;;6.28;;
34098;SDS011;20374;49.474;10.944;2023-07-08T08:14:50;5.13;;;4.73;;
34098;SDS011;20374;49.474;10.944;2023-07-08T08:17:16;5.88;;;5.32;;
34098;SDS011;20374;49.474;10.944;2023-07-08T08:19:42;6.82;;;6.32;;
34098;SDS011;20374;49.474;10.944;2023-07-08T08:22:08;6.23;;;5.73;;
34098;SDS011;20374;49.474;10.944;2023-07-08T08:24:34;5.63;;;5.22;;
34098;SDS011;20374;49.474;10.944;2023-07-08T08:27:00;6.50;;;6.10;;
34098;SDS011;20374;49.474;10.944;2023-07-08T08:29:26;6.10;;;5.60;;
34098;SDS011;20374;49.474;10.944;2023-07-08T08:31:52;6.60;;;5.40;;
34098;SDS011;20374;49.474;10.944;2023-07-08T08:34:19;4.95;;;4.55;;
34098;SDS011;20374;49.474;10.944;2023-07-08T08:36:45;7.55;;;6.45;;
34098;SDS011;20374;49.474;10.944;2023-07-08T08:39:11;6.03;;;5.63;;
34098;SDS011;20374;49.474;10.944;2023-07-08T08:41:39;5.73;;;5.33;;
34098;SDS011;20374;49.474;10.944;2023-07-08T08:44:09;5.95;;;5.50;;
34098;SDS011;20374;49.474;10.944;2023-07-08T08:46:48;6.70;;;6.30;;
34098;SDS011;20374;49.474;10.944;2023-07-08T08:49:26;7.43;;;6.93;;
34098;SDS011;20374;49.474;10.944;2023-07-08T08:51:58;6.35;;;5.95;;
34098;SDS011;20374;49.474;10.944;2023-07-08T08:54:24;6.30;;;5.80;;
34098;SDS011;20374;49.474;10.944;2023-07-08T08:57:06;6.38;;;5.93;;
34098;SDS011;20374;49.474;10.944;2023-07-08T08:59:49;6.70;;;6.20;;
34098;SDS011;20374;49.474;10.944;2023-07-08T09:05:14;5.47;;;5.15;;
34098;SDS011;20374;49.474;10.944;2023-07-08T09:07:45;6.50;;;6.10;;
34098;SDS011;20374;49.474;10.944;2023-07-08T09:10:26;6.03;;;5.63;;
34098;SDS011;20374;49.474;10.944;2023-07-08T09:13:08;7.80;;;7.30;;
34098;SDS011;20374;49.474;10.944;2023-07-08T09:15:58;6.85;;;6.43;;
34098;SDS011;20374;49.474;10.944;2023-07-08T09:18:36;6.80;;;6.30;;
34098;SDS011;20374;49.474;10.944;2023-07-08T09:21:16;6.07;;;5.57;;
34098;SDS011;20374;49.474;10.944;2023-07-08T09:23:46;5.93;;;5.53;;
34098;SDS011;20374;49.474;10.944;2023-07-08T09:26:18;7.30;;;6.80;;
34098;SDS011;20374;49.474;10.944;2023-07-08T09:28:47;7.13;;;6.63;;
34098;SDS011;20374;49.474;10.944;2023-07-08T09:31:32;6.13;;;5.73;;
34098;SDS011;20374;49.474;10.944;2023-07-08T09:34:14;6.57;;;6.13;;
34098;SDS011;20374;49.474;10.944;2023-07-08T09:36:45;6.18;;;5.72;;
34098;SDS011;20374;49.474;10.944;2023-07-08T09:39:13;6.13;;;5.72;;
34098;SDS011;20374;49.474;10.944;2023-07-08T09:41:42;8.05;;;7.55;;
34098;SDS011;20374;49.474;10.944;2023-07-08T09:46:51;6.57;;;6.15;;
34098;SDS011;20374;49.474;10.944;2023-07-08T09:49:22;8.05;;;7.55;;
34098;SDS011;20374;49.474;10.944;2023-07-08T09:51:52;7.32;;;6.93;;
34098;SDS011;20374;49.474;10.944;2023-07-08T09:54:19;8.30;;;7.80;;
34098;SDS011;20374;49.474;10.944;2023-07-08T09:57:09;7.17;;;6.70;;
34098;SDS011;20374;49.474;10.944;2023-07-08T09:59:43;7.93;;;7.43;;
34098;SDS011;20374;49.474;10.944;2023-07-08T10:02:25;9.20;;;8.70;;
34098;SDS011;20374;49.474;10.944;2023-07-08T10:05:10;8.10;;;7.60;;
34098;SDS011;20374;49.474;10.944;2023-07-08T10:07:44;9.18;;;8.63;;
34098;SDS011;20374;49.474;10.944;2023-07-08T10:10:13;9.40;;;8.90;;
34098;SDS011;20374;49.474;10.944;2023-07-08T10:12:42;9.93;;;9.43;;
34098;SDS011;20374;49.474;10.944;2023-07-08T10:18:02;10.57;;;9.98;;
34098;SDS011;20374;49.474;10.944;2023-07-08T10:20:29;12.85;;;12.18;;
34098;SDS011;20374;49.474;10.944;2023-07-08T10:26:08;11.95;;;11.35;;
34098;SDS011;20374;49.474;10.944;2023-07-08T10:31:54;9.60;;;9.10;;
34098;SDS011;20374;49.474;10.944;2023-07-08T10:34:36;9.52;;;9.02;;
34098;SDS011;20374;49.474;10.944;2023-07-08T10:39:55;12.35;;;11.75;;
34098;SDS011;20374;49.474;10.944;2023-07-08T10:42:26;11.90;;;11.30;;
34098;SDS011;20374;49.474;10.944;2023-07-08T10:45:13;10.85;;;10.25;;
34098;SDS011;20374;49.474;10.944;2023-07-08T10:50:55;11.40;;;10.77;;
34098;SDS011;20374;49.474;10.944;2023-07-08T10:53:35;11.00;;;10.25;;
34098;SDS011;20374;49.474;10.944;2023-07-08T10:56:37;11.85;;;11.25;;
34098;SDS011;20374;49.474;10.944;2023-07-08T11:05:28;9.33;;;8.83;;
34098;SDS011;20374;49.474;10.944;2023-07-08T11:08:06;9.95;;;9.35;;
34098;SDS011;20374;49.474;10.944;2023-07-08T11:13:55;10.07;;;9.57;;
34098;SDS011;20374;49.474;10.944;2023-07-08T11:16:32;11.10;;;10.52;;
34098;SDS011;20374;49.474;10.944;2023-07-08T11:21:49;11.15;;;10.63;;
34098;SDS011;20374;49.474;10.944;2023-07-08T11:24:38;11.18;;;10.57;;
34098;SDS011;20374;49.474;10.944;2023-07-08T11:27:16;12.63;;;11.93;;
34098;SDS011;20374;49.474;10.944;2023-07-08T11:29:55;12.32;;;11.70;;
34098;SDS011;20374;49.474;10.944;2023-07-08T11:32:23;11.43;;;10.83;;
34098;SDS011;20374;49.474;10.944;2023-07-08T11:34:57;10.68;;;10.07;;
34098;SDS011;20374;49.474;10.944;2023-07-08T11:37:26;9.65;;;9.05;;
34098;SDS011;20374;49.474;10.944;2023-07-08T11:39:57;10.75;;;10.07;;
34098;SDS011;20374;49.474;10.944;2023-07-08T11:42:39;9.88;;;9.38;;
34098;SDS011;20374;49.474;10.944;2023-07-08T11:47:40;9.15;;;8.65;;
34098;SDS011;20374;49.474;10.944;2023-07-08T11:50:25;8.13;;;7.63;;
34098;SDS011;20374;49.474;10.944;2023-07-08T11:52:59;8.50;;;8.00;;
34098;SDS011;20374;49.474;10.944;2023-07-08T12:01:04;9.45;;;8.95;;
34098;SDS011;20374;49.474;10.944;2023-07-08T12:03:38;9.95;;;9.40;;
34098;SDS011;20374;49.474;10.944;2023-07-08T12:08:53;9.82;;;9.23;;
34098;SDS011;20374;49.474;10.944;2023-07-08T12:11:24;10.43;;;9.83;;
34098;SDS011;20374;49.474;10.944;2023-07-08T12:13:58;11.13;;;10.52;;
34098;SDS011;20374;49.474;10.944;2023-07-08T12:16:26;9.32;;;8.82;;
34098;SDS011;20374;49.474;10.944;2023-07-08T12:18:54;9.15;;;8.63;;
34098;SDS011;20374;49.474;10.944;2023-07-08T12:21:23;10.73;;;10.13;;
34098;SDS011;20374;49.474;10.944;2023-07-08T12:23:53;8.40;;;7.90;;
34098;SDS011;20374;49.474;10.944;2023-07-08T12:26:19;10.00;;;9.48;;
34098;SDS011;20374;49.474;10.944;2023-07-08T12:28:46;10.38;;;9.77;;
34098;SDS011;20374;49.474;10.944;2023-07-08T12:31:16;10.43;;;9.85;;
34098;SDS011;20374;49.474;10.944;2023-07-08T12:33:46;9.23;;;8.73;;
34098;SDS011;20374;49.474;10.944;2023-07-08T12:36:15;8.45;;;7.95;;
34098;SDS011;20374;49.474;10.944;2023-07-08T12:38:47;10.52;;;9.93;;
34098;SDS011;20374;49.474;10.944;2023-07-08T12:41:21;10.68;;;10.07;;
34098;SDS011;20374;49.474;10.944;2023-07-08T12:43:49;11.25;;;10.65;;
34098;SDS011;20374;49.474;10.944;2023-07-08T12:46:17;9.77;;;9.17;;
34098;SDS011;20374;49.474;10.944;2023-07-08T12:48:45;9.38;;;8.85;;
34098;SDS011;20374;49.474;10.944;2023-07-08T12:51:12;11.73;;;11.13;;
34098;SDS011;20374;49.474;10.944;2023-07-08T12:53:40;11.55;;;10.95;;
34098;SDS011;20374;49.474;10.944;2023-07-08T12:56:07;12.00;;;11.40;;
34098;SDS011;20374;49.474;10.944;2023-07-08T12:58:34;9.63;;;9.05;;
34098;SDS011;20374;49.474;10.944;2023-07-08T13:01:05;9.15;;;8.65;;
34098;SDS011;20374;49.474;10.944;2023-07-08T13:03:37;9.30;;;8.70;;
34098;SDS011;20374;49.474;10.944;2023-07-08T13:06:07;9.15;;;8.65;;
34098;SDS011;20374;49.474;10.944;2023-07-08T13:08:36;9.10;;;8.50;;
34098;SDS011;20374;49.474;10.944;2023-07-08T13:11:04;10.18;;;9.57;;
34098;SDS011;20374;49.474;10.944;2023-07-08T13:13:31;10.18;;;9.57;;
34098;SDS011;20374;49.474;10.944;2023-07-08T13:16:00;9.30;;;8.80;;
34098;SDS011;20374;49.474;10.944;2023-07-08T13:18:36;9.35;;;8.85;;
34098;SDS011;20374;49.474;10.944;2023-07-08T13:21:05;9.10;;;8.50;;
34098;SDS011;20374;49.474;10.944;2023-07-08T13:23:34;6.68;;;6.18;;
34098;SDS011;20374;49.474;10.944;2023-07-08T13:26:00;7.80;;;7.30;;
34098;SDS011;20374;49.474;10.944;2023-07-08T13:28:36;6.75;;;6.25;;
34098;SDS011;20374;49.474;10.944;2023-07-08T13:31:15;10.25;;;9.65;;
34098;SDS011;20374;49.474;10.944;2023-07-08T13:33:46;7.00;;;6.60;;
34098;SDS011;20374;49.474;10.944;2023-07-08T13:36:15;7.55;;;7.10;;
34098;SDS011;20374;49.474;10.944;2023-07-08T13:38:43;7.70;;;7.10;;
34098;SDS011;20374;49.474;10.944;2023-07-08T13:41:09;6.70;;;6.28;;
34098;SDS011;20374;49.474;10.944;2023-07-08T13:43:39;8.80;;;8.30;;
34098;SDS011;20374;49.474;10.944;2023-07-08T13:46:25;8.30;;;7.80;;
34098;SDS011;20374;49.474;10.944;2023-07-08T13:49:10;8.35;;;7.85;;
34098;SDS011;20374;49.474;10.944;2023-07-08T13:51:36;9.88;;;9.27;;
34098;SDS011;20374;49.474;10.944;2023-07-08T13:57:00;9.47;;;8.87;;
34098;SDS011;20374;49.474;10.944;2023-07-08T13:59:26;10.10;;;9.40;;
34098;SDS011;20374;49.474;10.944;2023-07-08T14:01:53;8.60;;;8.10;;
34098;SDS011;20374;49.474;10.944;2023-07-08T14:04:24;8.55;;;8.02;;
34098;SDS011;20374;49.474;10.944;2023-07-08T14:06:57;9.60;;;9.00;;
34098;SDS011;20374;49.474;10.944;2023-07-08T14:09:23;10.50;;;9.87;;
34098;SDS011;20374;49.474;10.944;2023-07-08T14:11:50;8.75;;;8.20;;
34098;SDS011;20374;49.474;10.944;2023-07-08T14:14:17;10.30;;;9.70;;
34098;SDS011;20374;49.474;10.944;2023-07-08T14:16:45;8.88;;;8.27;;
34098;SDS011;20374;49.474;10.944;2023-07-08T14:19:16;8.63;;;8.05;;
34098;SDS011;20374;49.474;10.944;2023-07-08T14:22:19;6.70;;;6.20;;
34098;SDS011;20374;49.474;10.944;2023-07-08T14:24:48;8.63;;;8.13;;
34098;SDS011;20374;49.474;10.944;2023-07-08T14:27:16;7.80;;;7.30;;
34098;SDS011;20374;49.474;10.944;2023-07-08T14:29:45;8.27;;;7.78;;
34098;SDS011;20374;49.474;10.944;2023-07-08T14:32:14;6.60;;;6.20;;
34098;SDS011;20374;49.474;10.944;2023-07-08T14:34:56;8.93;;;8.43;;
34098;SDS011;20374;49.474;10.944;2023-07-08T14:37:40;6.65;;;6.15;;
34098;SDS011;20374;49.474;10.944;2023-07-08T14:40:25;6.28;;;5.85;;
34098;SDS011;20374;49.474;10.944;2023-07-08T14:42:56;6.18;;;5.75;;
34098;SDS011;20374;49.474;10.944;2023-07-08T14:45:26;8.30;;;7.77;;
34098;SDS011;20374;49.474;10.944;2023-07-08T14:47:53;7.03;;;6.53;;
34098;SDS011;20374;49.474;10.944;2023-07-08T14:50:19;7.45;;;6.78;;
34098;SDS011;20374;49.474;10.944;2023-07-08T14:52:45;8.20;;;7.63;;
34098;SDS011;20374;49.474;10.944;2023-07-08T14:55:11;7.70;;;7.20;;
34098;SDS011;20374;49.474;10.944;2023-07-08T14:57:44;7.65;;;7.07;;
34098;SDS011;20374;49.474;10.944;2023-07-08T15:00:16;6.82;;;6.38;;
34098;SDS011;20374;49.474;10.944;2023-07-08T15:02:45;8.27;;;7.77;;
34098;SDS011;20374;49.474;10.944;2023-07-08T15:05:14;7.40;;;6.80;;
34098;SDS011;20374;49.474;10.944;2023-07-08T15:07:49;8.00;;;7.50;;
34098;SDS011;20374;49.474;10.944;2023-07-08T15:10:16;8.75;;;8.25;;
34098;SDS011;20374;49.474;10.944;2023-07-08T15:12:43;6.82;;;6.43;;
34098;SDS011;20374;49.474;10.944;2023-07-08T15:18:15;7.50;;;7.00;;
34098;SDS011;20374;49.474;10.944;2023-07-08T15:20:43;7.93;;;7.43;;
34098;SDS011;20374;49.474;10.944;2023-07-08T15:23:09;8.05;;;7.38;;
34098;SDS011;20374;49.474;10.944;2023-07-08T15:25:36;6.93;;;6.43;;
34098;SDS011;20374;49.474;10.944;2023-07-08T15:28:02;7.37;;;6.87;;
34098;SDS011;20374;49.474;10.944;2023-07-08T15:30:29;7.00;;;6.50;;
34098;SDS011;20374;49.474;10.944;2023-07-08T15:32:56;7.03;;;6.53;;
34098;SDS011;20374;49.474;10.944;2023-07-08T15:35:27;8.65;;;8.15;;
34098;SDS011;20374;49.474;10.944;2023-07-08T15:37:59;6.95;;;6.45;;
34098;SDS011;20374;49.474;10.944;2023-07-08T15:40:30;8.67;;;8.07;;